KCHS

Charleston AFB / Intl Airport

Charleston, South Carolina, USA
METAR KCHS 190656Z 26004KT 10SM CLR 00/M08 A3030 RMK AO2 SLP262 T00001083
Observed Flight Rules
Jan-19 @ 06:56 UTC (17 minutes ago) Visual Flight Rules
Wind Visibility Clouds
260° at 4 knots 10 miles
  • Clear skies
Temperatures Readings
Current 0°C / 32°F
Dewpoint -8°C / 18°F
Humidity 55%
Altimeter 30.3" Hg
Pressure 1026.2 hPa
Elevation 13
METAR KCHS 190656Z 26004KT 10SM CLR 00/M08 A3030 RMK AO2 SLP262 T00001083
Observed Flight Rules
Jan-19 @ 06:56 UTC
(17 minutes ago)
VFR
Wind Visibility
260° at 4 knots 10 miles
Clouds
  • Clear skies
Temperature Dewpoint
0°C / 32°F -8°C / 18°F
Humidity Altimeter Pressure
55% 30.3" Hg 1026.2 hPa